Station Historical Data
Daily Summary for January 15, 2018 Units:  Both    English   Metric
« Previous Day
Next Day »
Daily Weekly Monthly Yearly Custom
  High: Low: Average:
Temperature: 22.6 °F /  -5.2 °C 5.0 °F /  -15 °C 14.7 °F /  -9.6 °C
Dew Point: 16.7 °F /  -8.5 °C -0.4 °F /  -18 °C 7.8 °F /  -13.4 °C
Humidity: 87% 51% 74%
Wind Speed: 8.0mph /  12.9km/h - 1.6mph /  2.6km/h
Wind Gust: 10.0mph /  16.1km/h - -
Wind- - East
Pressure: 30.70 in /  1039.5 hPa 30.36 in /  1028 hPa -
Precipitation: 0.00 in /  0 mm    
Historical Graphs
 
 
Tabular Data for January 15, 2018
Time Temperature Dew Point Pressure Wind Wind Speed Wind Gust Humidity Rainfall Rate (Hourly)
00:04 6.2 °F /  -14.3 °C 1.1 °F /  -17.2 °C 30.70in /  1039.5hPa Calm     79% 0.00in /  0mm
00:09 6.1 °F /  -14.4 °C 1.0 °F /  -17.2 °C 30.69in /  1039.2hPa Calm     79% 0.00in /  0mm
00:24 6.0 °F /  -14.4 °C 0.9 °F /  -17.3 °C 30.68in /  1038.8hPa Calm     79% 0.00in /  0mm
00:29 6.0 °F /  -14.4 °C 0.9 °F /  -17.3 °C 30.69in /  1039.2hPa Calm     79% 0.00in /  0mm
00:34 6.0 °F /  -14.4 °C 0.9 °F /  -17.3 °C 30.69in /  1039.2hPa Calm     79% 0.00in /  0mm
00:39 5.8 °F /  -14.6 °C 0.7 °F /  -17.4 °C 30.69in /  1039.2hPa Calm     79% 0.00in /  0mm
00:44 5.7 °F /  -14.6 °C 0.6 °F /  -17.4 °C 30.68in /  1038.8hPa Calm     79% 0.00in /  0mm
00:49 5.7 °F /  -14.6 °C 0.6 °F /  -17.4 °C 30.68in /  1038.8hPa SE 1.0mph /  1.6km/h 4.0mph /  6.4km/h 79% 0.00in /  0mm
00:54 5.9 °F /  -14.5 °C 0.8 °F /  -17.3 °C 30.68in /  1038.8hPa SE 1.0mph /  1.6km/h 4.0mph /  6.4km/h 79% 0.00in /  0mm
00:59 6.0 °F /  -14.4 °C 0.9 °F /  -17.3 °C 30.68in /  1038.8hPa SE 1.0mph /  1.6km/h 4.0mph /  6.4km/h 79% 0.00in /  0mm
01:04 6.0 °F /  -14.4 °C 0.9 °F /  -17.3 °C 30.68in /  1038.8hPa SE 1.0mph /  1.6km/h 2.0mph /  3.2km/h 79% 0.00in /  0mm
01:09 5.8 °F /  -14.6 °C 0.7 °F /  -17.4 °C 30.68in /  1038.8hPa Calm   2.0mph /  3.2km/h 79% 0.00in /  0mm
01:14 5.8 °F /  -14.6 °C 0.7 °F /  -17.4 °C 30.68in /  1038.8hPa ESE 1.0mph /  1.6km/h 3.0mph /  4.8km/h 79% 0.00in /  0mm
01:19 5.8 °F /  -14.6 °C 0.7 °F /  -17.4 °C 30.68in /  1038.8hPa Calm   3.0mph /  4.8km/h 79% 0.00in /  0mm
01:24 5.8 °F /  -14.6 °C 0.4 °F /  -17.6 °C 30.68in /  1038.8hPa Calm   3.0mph /  4.8km/h 78% 0.00in /  0mm
01:29 5.8 °F /  -14.6 °C 0.7 °F /  -17.4 °C 30.67in /  1038.5hPa Calm   3.0mph /  4.8km/h 79% 0.00in /  0mm
01:34 5.8 °F /  -14.6 °C 0.4 °F /  -17.6 °C 30.67in /  1038.5hPa Calm     78% 0.00in /  0mm
01:39 5.8 °F /  -14.6 °C 0.4 °F /  -17.6 °C 30.67in /  1038.5hPa Calm     78% 0.00in /  0mm
01:44 5.8 °F /  -14.6 °C 0.4 °F /  -17.6 °C 30.67in /  1038.5hPa Calm     78% 0.00in /  0mm
01:49 5.8 °F /  -14.6 °C 0.4 °F /  -17.6 °C 30.67in /  1038.5hPa Calm     78% 0.00in /  0mm
01:54 5.6 °F /  -14.7 °C 0.2 °F /  -17.7 °C 30.67in /  1038.5hPa Calm     78% 0.00in /  0mm
01:59 5.7 °F /  -14.6 °C 0.3 °F /  -17.6 °C 30.67in /  1038.5hPa Calm     78% 0.00in /  0mm
02:04 5.8 °F /  -14.6 °C 0.7 °F /  -17.4 °C 30.67in /  1038.5hPa Calm   4.0mph /  6.4km/h 79% 0.00in /  0mm
02:09 5.9 °F /  -14.5 °C 0.5 °F /  -17.5 °C 30.67in /  1038.5hPa ESE 1.0mph /  1.6km/h 4.0mph /  6.4km/h 78% 0.00in /  0mm
02:14 5.9 °F /  -14.5 °C 0.5 °F /  -17.5 °C 30.66in /  1038.1hPa ESE 1.0mph /  1.6km/h 3.0mph /  4.8km/h 78% 0.00in /  0mm
02:19 5.5 °F /  -14.7 °C 0.1 °F /  -17.7 °C 30.66in /  1038.1hPa Calm   1.0mph /  1.6km/h 78% 0.00in /  0mm
02:24 5.2 °F /  -14.9 °C -0.2 °F /  -17.9 °C 30.66in /  1038.1hPa Calm     78% 0.00in /  0mm
02:29 5.1 °F /  -14.9 °C -0.3 °F /  -17.9 °C 30.66in /  1038.1hPa Calm     78% 0.00in /  0mm
02:34 5.0 °F /  -15 °C -0.4 °F /  -18 °C 30.66in /  1038.1hPa Calm     78% 0.00in /  0mm
02:39 5.2 °F /  -14.9 °C 0.1 °F /  -17.7 °C 30.66in /  1038.1hPa Calm   4.0mph /  6.4km/h 79% 0.00in /  0mm
02:44 5.8 °F /  -14.6 °C 0.7 °F /  -17.4 °C 30.66in /  1038.1hPa ESE 1.0mph /  1.6km/h 4.0mph /  6.4km/h 79% 0.00in /  0mm
02:49 6.3 °F /  -14.3 °C 1.2 °F /  -17.1 °C 30.65in /  1037.8hPa ESE 2.0mph /  3.2km/h 4.0mph /  6.4km/h 79% 0.00in /  0mm
02:54 6.7 °F /  -14.1 °C 1.3 °F /  -17.1 °C 30.65in /  1037.8hPa East 1.0mph /  1.6km/h 5.0mph /  8km/h 78% 0.00in /  0mm
02:59 7.1 °F /  -13.8 °C 1.7 °F /  -16.8 °C 30.65in /  1037.8hPa East 5.0mph /  8km/h 6.0mph /  9.7km/h 78% 0.00in /  0mm
03:04 7.2 °F /  -13.8 °C 1.5 °F /  -16.9 °C 30.64in /  1037.5hPa East 3.0mph /  4.8km/h 6.0mph /  9.7km/h 77% 0.00in /  0mm
03:09 7.4 °F /  -13.7 °C 1.4 °F /  -17 °C 30.64in /  1037.5hPa ENE 3.0mph /  4.8km/h 6.0mph /  9.7km/h 76% 0.00in /  0mm
03:14 7.2 °F /  -13.8 °C 1.2 °F /  -17.1 °C 30.64in /  1037.5hPa ENE 2.0mph /  3.2km/h 7.0mph /  11.3km/h 76% 0.00in /  0mm
03:19 7.1 °F /  -13.8 °C 1.1 °F /  -17.2 °C 30.64in /  1037.5hPa NE 3.0mph /  4.8km/h 7.0mph /  11.3km/h 76% 0.00in /  0mm
03:24 6.7 °F /  -14.1 °C 0.5 °F /  -17.5 °C 30.64in /  1037.5hPa NE 2.0mph /  3.2km/h 5.0mph /  8km/h 75% 0.00in /  0mm
03:29 6.4 °F /  -14.2 °C 0.4 °F /  -17.6 °C 30.63in /  1037.1hPa NE 2.0mph /  3.2km/h 5.0mph /  8km/h 76% 0.00in /  0mm
03:34 6.2 °F /  -14.3 °C 0.3 °F /  -17.6 °C 30.63in /  1037.1hPa NE 2.0mph /  3.2km/h 5.0mph /  8km/h 76% 0.00in /  0mm
03:39 6.1 °F /  -14.4 °C 0.2 °F /  -17.7 °C 30.63in /  1037.1hPa Calm   7.0mph /  11.3km/h 76% 0.00in /  0mm
03:44 6.1 °F /  -14.4 °C 0.2 °F /  -17.7 °C 30.63in /  1037.1hPa ENE 2.0mph /  3.2km/h 7.0mph /  11.3km/h 76% 0.00in /  0mm
03:49 6.0 °F /  -14.4 °C 0.1 °F /  -17.7 °C 30.63in /  1037.1hPa ENE 2.0mph /  3.2km/h 4.0mph /  6.4km/h 76% 0.00in /  0mm
03:54 6.1 °F /  -14.4 °C 0.2 °F /  -17.7 °C 30.62in /  1036.8hPa ENE 1.0mph /  1.6km/h 3.0mph /  4.8km/h 76% 0.00in /  0mm
03:59 6.4 °F /  -14.2 °C 0.4 °F /  -17.6 °C 30.62in /  1036.8hPa ENE 1.0mph /  1.6km/h 5.0mph /  8km/h 76% 0.00in /  0mm
04:04 6.8 °F /  -14 °C 0.8 °F /  -17.3 °C 30.63in /  1037.1hPa ENE 2.0mph /  3.2km/h 5.0mph /  8km/h 76% 0.00in /  0mm
04:09 7.1 °F /  -13.8 °C 1.1 °F /  -17.2 °C 30.63in /  1037.1hPa ENE 2.0mph /  3.2km/h 7.0mph /  11.3km/h 76% 0.00in /  0mm
04:14 7.4 °F /  -13.7 °C 1.4 °F /  -17 °C 30.62in /  1036.8hPa ENE 2.0mph /  3.2km/h 8.0mph /  12.9km/h 76% 0.00in /  0mm
04:19 7.7 °F /  -13.5 °C 1.4 °F /  -17 °C 30.63in /  1037.1hPa ENE 3.0mph /  4.8km/h 8.0mph /  12.9km/h 75% 0.00in /  0mm
04:24 7.9 °F /  -13.4 °C 1.3 °F /  -17.1 °C 30.62in /  1036.8hPa East 2.0mph /  3.2km/h 7.0mph /  11.3km/h 74% 0.00in /  0mm
04:29 7.9 °F /  -13.4 °C 1.3 °F /  -17.1 °C 30.62in /  1036.8hPa East 2.0mph /  3.2km/h 5.0mph /  8km/h 74% 0.00in /  0mm
04:34 7.8 °F /  -13.4 °C 0.9 °F /  -17.3 °C 30.62in /  1036.8hPa East 1.0mph /  1.6km/h 3.0mph /  4.8km/h 73% 0.00in /  0mm
04:39 7.7 °F /  -13.5 °C 0.8 °F /  -17.3 °C 30.63in /  1037.1hPa NE 3.0mph /  4.8km/h 5.0mph /  8km/h 73% 0.00in /  0mm
04:49 7.4 °F /  -13.7 °C 0.6 °F /  -17.4 °C 30.62in /  1036.8hPa ENE 2.0mph /  3.2km/h 5.0mph /  8km/h 73% 0.00in /  0mm
04:54 7.3 °F /  -13.7 °C 0.7 °F /  -17.4 °C 30.62in /  1036.8hPa ENE 2.0mph /  3.2km/h 6.0mph /  9.7km/h 74% 0.00in /  0mm
04:59 7.3 °F /  -13.7 °C 0.7 °F /  -17.4 °C 30.62in /  1036.8hPa ENE 2.0mph /  3.2km/h 7.0mph /  11.3km/h 74% 0.00in /  0mm
05:04 7.2 °F /  -13.8 °C 0.7 °F /  -17.4 °C 30.62in /  1036.8hPa ENE 2.0mph /  3.2km/h 5.0mph /  8km/h 74% 0.00in /  0mm
05:09 7.2 °F /  -13.8 °C 0.7 °F /  -17.4 °C 30.62in /  1036.8hPa ENE 4.0mph /  6.4km/h 4.0mph /  6.4km/h 74% 0.00in /  0mm
05:14 7.2 °F /  -13.8 °C 0.7 °F /  -17.4 °C 30.62in /  1036.8hPa Calm   5.0mph /  8km/h 74% 0.00in /  0mm
05:19 7.2 °F /  -13.8 °C 0.7 °F /  -17.4 °C 30.61in /  1036.5hPa ENE 1.0mph /  1.6km/h 5.0mph /  8km/h 74% 0.00in /  0mm
05:24 7.5 °F /  -13.6 °C 0.9 °F /  -17.3 °C 30.62in /  1036.8hPa ENE 2.0mph /  3.2km/h 7.0mph /  11.3km/h 74% 0.00in /  0mm
05:29 7.7 °F /  -13.5 °C 1.1 °F /  -17.2 °C 30.61in /  1036.5hPa ENE 3.0mph /  4.8km/h 7.0mph /  11.3km/h 74% 0.00in /  0mm
05:34 7.8 °F /  -13.4 °C 1.2 °F /  -17.1 °C 30.61in /  1036.5hPa East 5.0mph /  8km/h 7.0mph /  11.3km/h 74% 0.00in /  0mm
05:39 7.9 °F /  -13.4 °C 1.3 °F /  -17.1 °C 30.61in /  1036.5hPa East 3.0mph /  4.8km/h 6.0mph /  9.7km/h 74% 0.00in /  0mm
05:44 7.9 °F /  -13.4 °C 1.0 °F /  -17.2 °C 30.61in /  1036.5hPa ENE 5.0mph /  8km/h 7.0mph /  11.3km/h 73% 0.00in /  0mm
05:49 8.0 °F /  -13.3 °C 1.1 °F /  -17.2 °C 30.61in /  1036.5hPa East 1.0mph /  1.6km/h 8.0mph /  12.9km/h 73% 0.00in /  0mm
05:54 8.0 °F /  -13.3 °C 1.1 °F /  -17.2 °C 30.60in /  1036.1hPa ENE 3.0mph /  4.8km/h 8.0mph /  12.9km/h 73% 0.00in /  0mm
06:04 8.2 °F /  -13.2 °C 1.0 °F /  -17.2 °C 30.60in /  1036.1hPa ENE 3.0mph /  4.8km/h 7.0mph /  11.3km/h 72% 0.00in /  0mm
06:09 8.2 °F /  -13.2 °C 1.0 °F /  -17.2 °C 30.60in /  1036.1hPa ENE 2.0mph /  3.2km/h 9.0mph /  14.5km/h 72% 0.00in /  0mm
06:14 8.2 °F /  -13.2 °C 1.0 °F /  -17.2 °C 30.60in /  1036.1hPa NE 1.0mph /  1.6km/h 4.0mph /  6.4km/h 72% 0.00in /  0mm
06:19 8.0 °F /  -13.3 °C 0.8 °F /  -17.3 °C 30.60in /  1036.1hPa NE 2.0mph /  3.2km/h 5.0mph /  8km/h 72% 0.00in /  0mm
06:24 7.8 °F /  -13.4 °C 0.9 °F /  -17.3 °C 30.60in /  1036.1hPa NE 2.0mph /  3.2km/h 5.0mph /  8km/h 73% 0.00in /  0mm
06:29 7.7 °F /  -13.5 °C 0.8 °F /  -17.3 °C 30.60in /  1036.1hPa NE 3.0mph /  4.8km/h 5.0mph /  8km/h 73% 0.00in /  0mm
06:34 7.7 °F /  -13.5 °C 0.8 °F /  -17.3 °C 30.60in /  1036.1hPa NE 2.0mph /  3.2km/h 6.0mph /  9.7km/h 73% 0.00in /  0mm
06:39 7.7 °F /  -13.5 °C 1.1 °F /  -17.2 °C 30.60in /  1036.1hPa NE 2.0mph /  3.2km/h 6.0mph /  9.7km/h 74% 0.00in /  0mm
06:54 8.0 °F /  -13.3 °C 1.4 °F /  -17 °C 30.60in /  1036.1hPa ENE 2.0mph /  3.2km/h 7.0mph /  11.3km/h 74% 0.00in /  0mm
06:59 8.0 °F /  -13.3 °C 1.4 °F /  -17 °C 30.60in /  1036.1hPa East 2.0mph /  3.2km/h 9.0mph /  14.5km/h 74% 0.00in /  0mm
07:04 8.0 °F /  -13.3 °C 1.4 °F /  -17 °C 30.60in /  1036.1hPa East 2.0mph /  3.2km/h 9.0mph /  14.5km/h 74% 0.00in /  0mm
07:09 8.0 °F /  -13.3 °C 1.4 °F /  -17 °C 30.59in /  1035.8hPa ENE 2.0mph /  3.2km/h 7.0mph /  11.3km/h 74% 0.00in /  0mm
07:24 8.0 °F /  -13.3 °C 1.1 °F /  -17.2 °C 30.59in /  1035.8hPa NE 3.0mph /  4.8km/h 6.0mph /  9.7km/h 73% 0.00in /  0mm
07:29 7.9 °F /  -13.4 °C 1.0 °F /  -17.2 °C 30.59in /  1035.8hPa East 2.0mph /  3.2km/h 7.0mph /  11.3km/h 73% 0.00in /  0mm
07:34 8.0 °F /  -13.3 °C 1.1 °F /  -17.2 °C 30.59in /  1035.8hPa East 2.0mph /  3.2km/h 8.0mph /  12.9km/h 73% 0.00in /  0mm
07:39 7.9 °F /  -13.4 °C 1.0 °F /  -17.2 °C 30.58in /  1035.4hPa East 3.0mph /  4.8km/h 8.0mph /  12.9km/h 73% 0.00in /  0mm
07:44 7.9 °F /  -13.4 °C 1.3 °F /  -17.1 °C 30.58in /  1035.4hPa ENE 3.0mph /  4.8km/h 6.0mph /  9.7km/h 74% 0.00in /  0mm
07:49 7.9 °F /  -13.4 °C 1.3 °F /  -17.1 °C 30.58in /  1035.4hPa ENE 3.0mph /  4.8km/h 6.0mph /  9.7km/h 74% 0.00in /  0mm
07:54 7.9 °F /  -13.4 °C 1.3 °F /  -17.1 °C 30.58in /  1035.4hPa ENE 2.0mph /  3.2km/h 5.0mph /  8km/h 74% 0.00in /  0mm
07:59 7.9 °F /  -13.4 °C 1.0 °F /  -17.2 °C 30.58in /  1035.4hPa ESE 3.0mph /  4.8km/h 7.0mph /  11.3km/h 73% 0.00in /  0mm
08:04 7.9 °F /  -13.4 °C 1.3 °F /  -17.1 °C 30.58in /  1035.4hPa ENE 3.0mph /  4.8km/h 7.0mph /  11.3km/h 74% 0.00in /  0mm
08:09 7.9 °F /  -13.4 °C 1.0 °F /  -17.2 °C 30.58in /  1035.4hPa SE 2.0mph /  3.2km/h 4.0mph /  6.4km/h 73% 0.00in /  0mm
08:14 8.0 °F /  -13.3 °C 1.1 °F /  -17.2 °C 30.58in /  1035.4hPa ENE 2.0mph /  3.2km/h 5.0mph /  8km/h 73% 0.00in /  0mm
08:19 8.1 °F /  -13.3 °C 1.2 °F /  -17.1 °C 30.58in /  1035.4hPa ENE 2.0mph /  3.2km/h 5.0mph /  8km/h 73% 0.00in /  0mm
08:24 8.3 °F /  -13.2 °C 1.4 °F /  -17 °C 30.58in /  1035.4hPa ENE 2.0mph /  3.2km/h 6.0mph /  9.7km/h 73% 0.00in /  0mm
08:29 8.5 °F /  -13.1 °C 1.6 °F /  -16.9 °C 30.58in /  1035.4hPa ENE 2.0mph /  3.2km/h 6.0mph /  9.7km/h 73% 0.00in /  0mm
08:34 8.9 °F /  -12.8 °C 2.0 °F /  -16.7 °C 30.58in /  1035.4hPa East 2.0mph /  3.2km/h 6.0mph /  9.7km/h 73% 0.00in /  0mm
08:39 9.1 °F /  -12.7 °C 1.9 °F /  -16.7 °C 30.57in /  1035.1hPa ENE 3.0mph /  4.8km/h 7.0mph /  11.3km/h 72% 0.00in /  0mm
08:44 9.4 °F /  -12.6 °C 2.2 °F /  -16.6 °C 30.57in /  1035.1hPa ENE 5.0mph /  8km/h 6.0mph /  9.7km/h 72% 0.00in /  0mm
08:49 9.5 °F /  -12.5 °C 2.0 °F /  -16.7 °C 30.57in /  1035.1hPa ENE 3.0mph /  4.8km/h 7.0mph /  11.3km/h 71% 0.00in /  0mm
08:54 9.6 °F /  -12.4 °C 2.1 °F /  -16.6 °C 30.57in /  1035.1hPa ENE 3.0mph /  4.8km/h 6.0mph /  9.7km/h 71% 0.00in /  0mm
08:59 9.8 °F /  -12.3 °C 2.3 °F /  -16.5 °C 30.57in /  1035.1hPa East 2.0mph /  3.2km/h 7.0mph /  11.3km/h 71% 0.00in /  0mm
09:04 10.0 °F /  -12.2 °C 2.5 °F /  -16.4 °C 30.57in /  1035.1hPa ENE 4.0mph /  6.4km/h 6.0mph /  9.7km/h 71% 0.00in /  0mm
09:09 10.2 °F /  -12.1 °C 2.7 °F /  -16.3 °C 30.57in /  1035.1hPa ENE 4.0mph /  6.4km/h 5.0mph /  8km/h 71% 0.00in /  0mm
09:14 10.4 °F /  -12 °C 2.9 °F /  -16.2 °C 30.57in /  1035.1hPa East 5.0mph /  8km/h 6.0mph /  9.7km/h 71% 0.00in /  0mm
09:19 10.5 °F /  -11.9 °C 2.6 °F /  -16.3 °C 30.57in /  1035.1hPa ENE 3.0mph /  4.8km/h 8.0mph /  12.9km/h 70% 0.00in /  0mm
09:24 10.8 °F /  -11.8 °C 2.9 °F /  -16.2 °C 30.57in /  1035.1hPa Calm   5.0mph /  8km/h 70% 0.00in /  0mm
09:29 11.0 °F /  -11.7 °C 3.1 °F /  -16.1 °C 30.57in /  1035.1hPa East 2.0mph /  3.2km/h 5.0mph /  8km/h 70% 0.00in /  0mm
09:34 11.4 °F /  -11.4 °C 3.5 °F /  -15.8 °C 30.57in /  1035.1hPa East 2.0mph /  3.2km/h 5.0mph /  8km/h 70% 0.00in /  0mm
09:44 12.2 °F /  -11 °C 4.0 °F /  -15.6 °C 30.57in /  1035.1hPa ENE 1.0mph /  1.6km/h 4.0mph /  6.4km/h 69% 0.00in /  0mm
09:49 12.5 °F /  -10.8 °C 4.3 °F /  -15.4 °C 30.56in /  1034.8hPa East 3.0mph /  4.8km/h 5.0mph /  8km/h 69% 0.00in /  0mm
09:54 12.7 °F /  -10.7 °C 4.1 °F /  -15.5 °C 30.56in /  1034.8hPa East 2.0mph /  3.2km/h 7.0mph /  11.3km/h 68% 0.00in /  0mm
09:59 13.3 °F /  -10.4 °C 4.7 °F /  -15.2 °C 30.56in /  1034.8hPa ENE 2.0mph /  3.2km/h 5.0mph /  8km/h 68% 0.00in /  0mm
10:04 13.9 °F /  -10.1 °C 5.0 °F /  -15 °C 30.56in /  1034.8hPa ESE 1.0mph /  1.6km/h 6.0mph /  9.7km/h 67% 0.00in /  0mm
10:14 14.8 °F /  -9.6 °C 5.2 °F /  -14.9 °C 30.56in /  1034.8hPa ESE 1.0mph /  1.6km/h 8.0mph /  12.9km/h 65% 0.00in /  0mm
10:19 15.2 °F /  -9.3 °C 5.5 °F /  -14.7 °C 30.55in /  1034.4hPa East 3.0mph /  4.8km/h 6.0mph /  9.7km/h 65% 0.00in /  0mm
10:24 15.3 °F /  -9.3 °C 4.9 °F /  -15.1 °C 30.55in /  1034.4hPa ESE 2.0mph /  3.2km/h 9.0mph /  14.5km/h 63% 0.00in /  0mm
10:29 15.5 °F /  -9.2 °C 5.1 °F /  -14.9 °C 30.55in /  1034.4hPa SE 4.0mph /  6.4km/h 9.0mph /  14.5km/h 63% 0.00in /  0mm
10:34 15.8 °F /  -9 °C 5.1 °F /  -14.9 °C 30.55in /  1034.4hPa SE 4.0mph /  6.4km/h 10.0mph /  16.1km/h 62% 0.00in /  0mm
10:39 16.1 °F /  -8.8 °C 5.7 °F /  -14.6 °C 30.55in /  1034.4hPa SE 3.0mph /  4.8km/h 10.0mph /  16.1km/h 63% 0.00in /  0mm
10:54 16.4 °F /  -8.7 °C 5.6 °F /  -14.7 °C 30.54in /  1034.1hPa East 1.0mph /  1.6km/h 6.0mph /  9.7km/h 62% 0.00in /  0mm
10:59 16.8 °F /  -8.4 °C 6.0 °F /  -14.4 °C 30.54in /  1034.1hPa ESE 3.0mph /  4.8km/h 7.0mph /  11.3km/h 62% 0.00in /  0mm
11:04 16.8 °F /  -8.4 °C 6.0 °F /  -14.4 °C 30.54in /  1034.1hPa SE 3.0mph /  4.8km/h 8.0mph /  12.9km/h 62% 0.00in /  0mm
11:09 16.8 °F /  -8.4 °C 5.7 °F /  -14.6 °C 30.53in /  1033.7hPa ESE 3.0mph /  4.8km/h 8.0mph /  12.9km/h 61% 0.00in /  0mm
11:14 16.9 °F /  -8.4 °C 5.8 °F /  -14.6 °C 30.53in /  1033.7hPa Calm   3.0mph /  4.8km/h 61% 0.00in /  0mm
11:19 17.1 °F /  -8.3 °C 5.9 °F /  -14.5 °C 30.53in /  1033.7hPa ESE 3.0mph /  4.8km/h 5.0mph /  8km/h 61% 0.00in /  0mm
11:24 17.2 °F /  -8.2 °C 6.0 °F /  -14.4 °C 30.52in /  1033.4hPa ESE 1.0mph /  1.6km/h 4.0mph /  6.4km/h 61% 0.00in /  0mm
11:29 17.3 °F /  -8.2 °C 5.8 °F /  -14.6 °C 30.52in /  1033.4hPa Calm   4.0mph /  6.4km/h 60% 0.00in /  0mm
11:34 17.7 °F /  -7.9 °C 6.2 °F /  -14.3 °C 30.52in /  1033.4hPa SE 2.0mph /  3.2km/h 4.0mph /  6.4km/h 60% 0.00in /  0mm
11:39 18.1 °F /  -7.7 °C 6.5 °F /  -14.2 °C 30.52in /  1033.4hPa SE 1.0mph /  1.6km/h 5.0mph /  8km/h 60% 0.00in /  0mm
11:44 18.6 °F /  -7.4 °C 6.6 °F /  -14.1 °C 30.52in /  1033.4hPa SE 1.0mph /  1.6km/h 5.0mph /  8km/h 59% 0.00in /  0mm
11:49 19.0 °F /  -7.2 °C 6.6 °F /  -14.1 °C 30.51in /  1033.1hPa ESE 2.0mph /  3.2km/h 5.0mph /  8km/h 58% 0.00in /  0mm
11:59 19.0 °F /  -7.2 °C 6.6 °F /  -14.1 °C 30.51in /  1033.1hPa East 3.0mph /  4.8km/h 3.0mph /  4.8km/h 58% 0.00in /  0mm
12:04 19.3 °F /  -7.1 °C 6.9 °F /  -13.9 °C 30.51in /  1033.1hPa Calm   5.0mph /  8km/h 58% 0.00in /  0mm
12:09 19.3 °F /  -7.1 °C 6.5 °F /  -14.2 °C 30.50in /  1032.7hPa East 1.0mph /  1.6km/h 5.0mph /  8km/h 57% 0.00in /  0mm
12:14 19.7 °F /  -6.8 °C 6.9 °F /  -13.9 °C 30.50in /  1032.7hPa East 1.0mph /  1.6km/h 3.0mph /  4.8km/h 57% 0.00in /  0mm
12:19 19.9 °F /  -6.7 °C 7.1 °F /  -13.8 °C 30.49in /  1032.4hPa SE 1.0mph /  1.6km/h 5.0mph /  8km/h 57% 0.00in /  0mm
12:24 20.1 °F /  -6.6 °C 7.3 °F /  -13.7 °C 30.49in /  1032.4hPa SE 1.0mph /  1.6km/h 4.0mph /  6.4km/h 57% 0.00in /  0mm
12:29 20.2 °F /  -6.6 °C 6.6 °F /  -14.1 °C 30.48in /  1032.1hPa Calm   2.0mph /  3.2km/h 55% 0.00in /  0mm
12:44 20.5 °F /  -6.4 °C 7.3 °F /  -13.7 °C 30.47in /  1031.7hPa ESE 2.0mph /  3.2km/h 4.0mph /  6.4km/h 56% 0.00in /  0mm
12:49 20.5 °F /  -6.4 °C 7.3 °F /  -13.7 °C 30.47in /  1031.7hPa ESE 1.0mph /  1.6km/h 4.0mph /  6.4km/h 56% 0.00in /  0mm
12:54 20.7 °F /  -6.3 °C 7.5 °F /  -13.6 °C 30.47in /  1031.7hPa ESE 1.0mph /  1.6km/h 2.0mph /  3.2km/h 56% 0.00in /  0mm
12:59 21.0 °F /  -6.1 °C 7.3 °F /  -13.7 °C 30.47in /  1031.7hPa Calm   3.0mph /  4.8km/h 55% 0.00in /  0mm
13:04 21.1 °F /  -6.1 °C 7.0 °F /  -13.9 °C 30.46in /  1031.4hPa ESE 1.0mph /  1.6km/h 3.0mph /  4.8km/h 54% 0.00in /  0mm
13:09 21.5 °F /  -5.8 °C 8.2 °F /  -13.2 °C 30.46in /  1031.4hPa ESE 1.0mph /  1.6km/h 3.0mph /  4.8km/h 56% 0.00in /  0mm
13:14 21.7 °F /  -5.7 °C 8.0 °F /  -13.3 °C 30.46in /  1031.4hPa ESE 1.0mph /  1.6km/h 3.0mph /  4.8km/h 55% 0.00in /  0mm
13:19 21.8 °F /  -5.7 °C 8.1 °F /  -13.3 °C 30.45in /  1031hPa ESE 1.0mph /  1.6km/h 3.0mph /  4.8km/h 55% 0.00in /  0mm
13:24 21.8 °F /  -5.7 °C 8.1 °F /  -13.3 °C 30.45in /  1031hPa ENE 2.0mph /  3.2km/h 4.0mph /  6.4km/h 55% 0.00in /  0mm
13:29 21.9 °F /  -5.6 °C 7.8 °F /  -13.4 °C 30.45in /  1031hPa Calm   3.0mph /  4.8km/h 54% 0.00in /  0mm
13:34 22.1 °F /  -5.5 °C 7.6 °F /  -13.6 °C 30.45in /  1031hPa Calm   1.0mph /  1.6km/h 53% 0.00in /  0mm
13:39 22.4 °F /  -5.3 °C 8.7 °F /  -12.9 °C 30.45in /  1031hPa Calm   1.0mph /  1.6km/h 55% 0.00in /  0mm
13:44 22.5 °F /  -5.3 °C 8.3 °F /  -13.2 °C 30.45in /  1031hPa Calm   2.0mph /  3.2km/h 54% 0.00in /  0mm
13:49 22.5 °F /  -5.3 °C 7.1 °F /  -13.8 °C 30.45in /  1031hPa Calm     51% 0.00in /  0mm
13:54 22.6 °F /  -5.2 °C 8.8 °F /  -12.9 °C 30.44in /  1030.7hPa Calm     55% 0.00in /  0mm
13:59 22.5 °F /  -5.3 °C 7.9 °F /  -13.4 °C 30.44in /  1030.7hPa Calm     53% 0.00in /  0mm
14:04 22.3 °F /  -5.4 °C 6.9 °F /  -13.9 °C 30.44in /  1030.7hPa ENE 1.0mph /  1.6km/h 3.0mph /  4.8km/h 51% 0.00in /  0mm
14:09 22.4 °F /  -5.3 °C 8.7 °F /  -12.9 °C 30.44in /  1030.7hPa ENE 1.0mph /  1.6km/h 5.0mph /  8km/h 55% 0.00in /  0mm
14:14 22.5 °F /  -5.3 °C 8.3 °F /  -13.2 °C 30.44in /  1030.7hPa ESE 2.0mph /  3.2km/h 5.0mph /  8km/h 54% 0.00in /  0mm
14:19 22.6 °F /  -5.2 °C 9.6 °F /  -12.4 °C 30.45in /  1031hPa SE 2.0mph /  3.2km/h 5.0mph /  8km/h 57% 0.00in /  0mm
14:24 22.4 °F /  -5.3 °C 10.2 °F /  -12.1 °C 30.45in /  1031hPa SE 8.0mph /  12.9km/h 8.0mph /  12.9km/h 59% 0.00in /  0mm
14:29 22.2 °F /  -5.4 °C 11.1 °F /  -11.6 °C 30.44in /  1030.7hPa Calm   8.0mph /  12.9km/h 62% 0.00in /  0mm
14:34 22.2 °F /  -5.4 °C 11.5 °F /  -11.4 °C 30.44in /  1030.7hPa SSE 3.0mph /  4.8km/h 5.0mph /  8km/h 63% 0.00in /  0mm
14:39 21.7 °F /  -5.7 °C 12.1 °F /  -11.1 °C 30.44in /  1030.7hPa ESE 2.0mph /  3.2km/h 5.0mph /  8km/h 66% 0.00in /  0mm
14:44 21.8 °F /  -5.7 °C 12.5 °F /  -10.8 °C 30.44in /  1030.7hPa SE 3.0mph /  4.8km/h 5.0mph /  8km/h 67% 0.00in /  0mm
14:49 22.1 °F /  -5.5 °C 13.8 °F /  -10.1 °C 30.44in /  1030.7hPa SSE 4.0mph /  6.4km/h 6.0mph /  9.7km/h 70% 0.00in /  0mm
14:54 21.9 °F /  -5.6 °C 14.3 °F /  -9.8 °C 30.44in /  1030.7hPa SE 3.0mph /  4.8km/h 6.0mph /  9.7km/h 72% 0.00in /  0mm
14:59 21.6 °F /  -5.8 °C 14.9 °F /  -9.5 °C 30.44in /  1030.7hPa SE 3.0mph /  4.8km/h 7.0mph /  11.3km/h 75% 0.00in /  0mm
15:04 21.8 °F /  -5.7 °C 15.4 °F /  -9.2 °C 30.44in /  1030.7hPa SE 3.0mph /  4.8km/h 7.0mph /  11.3km/h 76% 0.00in /  0mm
15:09 21.4 °F /  -5.9 °C 15.0 °F /  -9.4 °C 30.43in /  1030.4hPa SE 2.0mph /  3.2km/h 7.0mph /  11.3km/h 76% 0.00in /  0mm
15:14 21.4 °F /  -5.9 °C 15.3 °F /  -9.3 °C 30.43in /  1030.4hPa SE 3.0mph /  4.8km/h 7.0mph /  11.3km/h 77% 0.00in /  0mm
15:19 21.1 °F /  -6.1 °C 15.0 °F /  -9.4 °C 30.43in /  1030.4hPa SE 2.0mph /  3.2km/h 5.0mph /  8km/h 77% 0.00in /  0mm
15:24 20.8 °F /  -6.2 °C 15.0 °F /  -9.4 °C 30.43in /  1030.4hPa Calm   5.0mph /  8km/h 78% 0.00in /  0mm
15:34 21.1 °F /  -6.1 °C 15.3 °F /  -9.3 °C 30.43in /  1030.4hPa ENE 2.0mph /  3.2km/h 6.0mph /  9.7km/h 78% 0.00in /  0mm
15:39 21.3 °F /  -5.9 °C 15.5 °F /  -9.2 °C 30.43in /  1030.4hPa East 2.0mph /  3.2km/h 6.0mph /  9.7km/h 78% 0.00in /  0mm
15:49 21.0 °F /  -6.1 °C 15.2 °F /  -9.3 °C 30.43in /  1030.4hPa East 3.0mph /  4.8km/h 7.0mph /  11.3km/h 78% 0.00in /  0mm
15:50 21.0 °F /  -6.1 °C 15.2 °F /  -9.3 °C 30.43in /  1030.4hPa East 7.0mph /  11.3km/h 7.0mph /  11.3km/h 78% 0.00in /  0mm
15:54 21.1 °F /  -6.1 °C 15.6 °F /  -9.1 °C 30.43in /  1030.4hPa East 1.0mph /  1.6km/h 8.0mph /  12.9km/h 79% 0.00in /  0mm
15:55 21.1 °F /  -6.1 °C 15.6 °F /  -9.1 °C 30.43in /  1030.4hPa East 2.0mph /  3.2km/h 8.0mph /  12.9km/h 79% 0.00in /  0mm
16:00 21.0 °F /  -6.1 °C 15.2 °F /  -9.3 °C 30.42in /  1030hPa East 3.0mph /  4.8km/h 8.0mph /  12.9km/h 78% 0.00in /  0mm
16:05 20.7 °F /  -6.3 °C 14.9 °F /  -9.5 °C 30.42in /  1030hPa ENE 2.0mph /  3.2km/h 8.0mph /  12.9km/h 78% 0.00in /  0mm
16:09 20.7 °F /  -6.3 °C 14.6 °F /  -9.7 °C 30.42in /  1030hPa ENE 1.0mph /  1.6km/h 5.0mph /  8km/h 77% 0.00in /  0mm
16:14 20.3 °F /  -6.5 °C 14.2 °F /  -9.9 °C 30.43in /  1030.4hPa ENE 1.0mph /  1.6km/h 3.0mph /  4.8km/h 77% 0.00in /  0mm
16:19 20.1 °F /  -6.6 °C 14.3 °F /  -9.8 °C 30.43in /  1030.4hPa ENE 2.0mph /  3.2km/h 5.0mph /  8km/h 78% 0.00in /  0mm
16:24 20.0 °F /  -6.7 °C 14.2 °F /  -9.9 °C 30.43in /  1030.4hPa ENE 2.0mph /  3.2km/h 6.0mph /  9.7km/h 78% 0.00in /  0mm
16:29 20.0 °F /  -6.7 °C 14.2 °F /  -9.9 °C 30.43in /  1030.4hPa ENE 2.0mph /  3.2km/h 6.0mph /  9.7km/h 78% 0.00in /  0mm
16:34 20.0 °F /  -6.7 °C 14.2 °F /  -9.9 °C 30.43in /  1030.4hPa ESE 1.0mph /  1.6km/h 4.0mph /  6.4km/h 78% 0.00in /  0mm
16:40 20.0 °F /  -6.7 °C 14.2 °F /  -9.9 °C 30.43in /  1030.4hPa East 1.0mph /  1.6km/h 4.0mph /  6.4km/h 78% 0.00in /  0mm
16:49 20.1 °F /  -6.6 °C 14.3 °F /  -9.8 °C 30.43in /  1030.4hPa ENE 2.0mph /  3.2km/h 3.0mph /  4.8km/h 78% 0.00in /  0mm
16:54 20.2 °F /  -6.6 °C 14.7 °F /  -9.6 °C 30.43in /  1030.4hPa ENE 2.0mph /  3.2km/h 4.0mph /  6.4km/h 79% 0.00in /  0mm
16:59 20.2 °F /  -6.6 °C 14.7 °F /  -9.6 °C 30.43in /  1030.4hPa NE 2.0mph /  3.2km/h 5.0mph /  8km/h 79% 0.00in /  0mm
17:04 20.2 °F /  -6.6 °C 14.7 °F /  -9.6 °C 30.43in /  1030.4hPa ENE 2.0mph /  3.2km/h 4.0mph /  6.4km/h 79% 0.00in /  0mm
17:09 20.3 °F /  -6.5 °C 14.8 °F /  -9.6 °C 30.43in /  1030.4hPa ENE 2.0mph /  3.2km/h 5.0mph /  8km/h 79% 0.00in /  0mm
17:19 20.4 °F /  -6.4 °C 14.9 °F /  -9.5 °C 30.43in /  1030.4hPa ENE 2.0mph /  3.2km/h 5.0mph /  8km/h 79% 0.00in /  0mm
17:24 20.5 °F /  -6.4 °C 15.0 °F /  -9.4 °C 30.42in /  1030hPa ENE 2.0mph /  3.2km/h 6.0mph /  9.7km/h 79% 0.00in /  0mm
17:34 20.6 °F /  -6.3 °C 15.1 °F /  -9.4 °C 30.42in /  1030hPa ENE 1.0mph /  1.6km/h 4.0mph /  6.4km/h 79% 0.00in /  0mm
17:39 20.6 °F /  -6.3 °C 15.1 °F /  -9.4 °C 30.42in /  1030hPa East 2.0mph /  3.2km/h 5.0mph /  8km/h 79% 0.00in /  0mm
17:44 20.6 °F /  -6.3 °C 15.1 °F /  -9.4 °C 30.42in /  1030hPa East 2.0mph /  3.2km/h 5.0mph /  8km/h 79% 0.00in /  0mm
17:49 20.6 °F /  -6.3 °C 15.1 °F /  -9.4 °C 30.41in /  1029.7hPa East 1.0mph /  1.6km/h 5.0mph /  8km/h 79% 0.00in /  0mm
17:54 20.6 °F /  -6.3 °C 15.1 °F /  -9.4 °C 30.41in /  1029.7hPa East 1.0mph /  1.6km/h 6.0mph /  9.7km/h 79% 0.00in /  0mm
17:59 20.6 °F /  -6.3 °C 15.1 °F /  -9.4 °C 30.41in /  1029.7hPa East 1.0mph /  1.6km/h 6.0mph /  9.7km/h 79% 0.00in /  0mm
18:04 20.6 °F /  -6.3 °C 15.1 °F /  -9.4 °C 30.41in /  1029.7hPa ESE 1.0mph /  1.6km/h 7.0mph /  11.3km/h 79% 0.00in /  0mm
18:09 20.6 °F /  -6.3 °C 15.1 °F /  -9.4 °C 30.41in /  1029.7hPa ESE 2.0mph /  3.2km/h 7.0mph /  11.3km/h 79% 0.00in /  0mm
18:19 20.6 °F /  -6.3 °C 15.1 °F /  -9.4 °C 30.42in /  1030hPa ESE 2.0mph /  3.2km/h 5.0mph /  8km/h 79% 0.00in /  0mm
18:24 20.5 °F /  -6.4 °C 15.0 °F /  -9.4 °C 30.42in /  1030hPa SE 2.0mph /  3.2km/h 5.0mph /  8km/h 79% 0.00in /  0mm
18:29 20.6 °F /  -6.3 °C 15.4 °F /  -9.2 °C 30.41in /  1029.7hPa Calm   6.0mph /  9.7km/h 80% 0.00in /  0mm
18:34 20.5 °F /  -6.4 °C 15.3 °F /  -9.3 °C 30.41in /  1029.7hPa Calm   6.0mph /  9.7km/h 80% 0.00in /  0mm
18:39 20.5 °F /  -6.4 °C 15.3 °F /  -9.3 °C 30.41in /  1029.7hPa SE 3.0mph /  4.8km/h 5.0mph /  8km/h 80% 0.00in /  0mm
18:49 20.4 °F /  -6.4 °C 15.2 °F /  -9.3 °C 30.41in /  1029.7hPa ESE 2.0mph /  3.2km/h 5.0mph /  8km/h 80% 0.00in /  0mm
18:54 20.4 °F /  -6.4 °C 15.5 °F /  -9.2 °C 30.41in /  1029.7hPa East 2.0mph /  3.2km/h 5.0mph /  8km/h 81% 0.00in /  0mm
18:59 20.4 °F /  -6.4 °C 15.5 °F /  -9.2 °C 30.41in /  1029.7hPa East 2.0mph /  3.2km/h 6.0mph /  9.7km/h 81% 0.00in /  0mm
19:04 20.3 °F /  -6.5 °C 15.4 °F /  -9.2 °C 30.41in /  1029.7hPa ESE 2.0mph /  3.2km/h 6.0mph /  9.7km/h 81% 0.00in /  0mm
19:09 20.3 °F /  -6.5 °C 15.4 °F /  -9.2 °C 30.41in /  1029.7hPa East 1.0mph /  1.6km/h 5.0mph /  8km/h 81% 0.00in /  0mm
19:14 20.3 °F /  -6.5 °C 15.7 °F /  -9.1 °C 30.41in /  1029.7hPa East 1.0mph /  1.6km/h 5.0mph /  8km/h 82% 0.00in /  0mm
19:19 20.2 °F /  -6.6 °C 15.6 °F /  -9.1 °C 30.41in /  1029.7hPa ESE 2.0mph /  3.2km/h 5.0mph /  8km/h 82% 0.00in /  0mm
19:34 20.3 °F /  -6.5 °C 15.7 °F /  -9.1 °C 30.41in /  1029.7hPa East 2.0mph /  3.2km/h 4.0mph /  6.4km/h 82% 0.00in /  0mm
19:39 20.2 °F /  -6.6 °C 15.6 °F /  -9.1 °C 30.41in /  1029.7hPa East 2.0mph /  3.2km/h 3.0mph /  4.8km/h 82% 0.00in /  0mm
19:44 20.3 °F /  -6.5 °C 15.7 °F /  -9.1 °C 30.41in /  1029.7hPa ESE 2.0mph /  3.2km/h 4.0mph /  6.4km/h 82% 0.00in /  0mm
19:59 20.2 °F /  -6.6 °C 15.9 °F /  -8.9 °C 30.40in /  1029.3hPa ESE 2.0mph /  3.2km/h 5.0mph /  8km/h 83% 0.00in /  0mm
20:04 20.2 °F /  -6.6 °C 15.9 °F /  -8.9 °C 30.40in /  1029.3hPa ESE 2.0mph /  3.2km/h 4.0mph /  6.4km/h 83% 0.00in /  0mm
20:09 20.2 °F /  -6.6 °C 15.9 °F /  -8.9 °C 30.41in /  1029.7hPa ESE 1.0mph /  1.6km/h 4.0mph /  6.4km/h 83% 0.00in /  0mm
20:14 20.1 °F /  -6.6 °C 15.8 °F /  -9 °C 30.40in /  1029.3hPa ESE 2.0mph /  3.2km/h 4.0mph /  6.4km/h 83% 0.00in /  0mm
20:19 20.2 °F /  -6.6 °C 15.9 °F /  -8.9 °C 30.40in /  1029.3hPa ESE 1.0mph /  1.6km/h 4.0mph /  6.4km/h 83% 0.00in /  0mm
20:24 20.2 °F /  -6.6 °C 15.9 °F /  -8.9 °C 30.40in /  1029.3hPa SE 1.0mph /  1.6km/h 4.0mph /  6.4km/h 83% 0.00in /  0mm
20:29 20.1 °F /  -6.6 °C 16.0 °F /  -8.9 °C 30.40in /  1029.3hPa SSE 3.0mph /  4.8km/h 4.0mph /  6.4km/h 84% 0.00in /  0mm
20:39 20.1 °F /  -6.6 °C 16.0 °F /  -8.9 °C 30.40in /  1029.3hPa Calm   4.0mph /  6.4km/h 84% 0.00in /  0mm
20:44 20.0 °F /  -6.7 °C 15.9 °F /  -8.9 °C 30.40in /  1029.3hPa Calm   3.0mph /  4.8km/h 84% 0.00in /  0mm
20:49 20.0 °F /  -6.7 °C 16.2 °F /  -8.8 °C 30.40in /  1029.3hPa Calm   3.0mph /  4.8km/h 85% 0.00in /  0mm
20:54 20.0 °F /  -6.7 °C 16.2 °F /  -8.8 °C 30.40in /  1029.3hPa SE 3.0mph /  4.8km/h 4.0mph /  6.4km/h 85% 0.00in /  0mm
20:59 20.0 °F /  -6.7 °C 16.2 °F /  -8.8 °C 30.40in /  1029.3hPa SE 1.0mph /  1.6km/h 3.0mph /  4.8km/h 85% 0.00in /  0mm
21:04 20.0 °F /  -6.7 °C 16.2 °F /  -8.8 °C 30.40in /  1029.3hPa SE 1.0mph /  1.6km/h 4.0mph /  6.4km/h 85% 0.00in /  0mm
21:09 20.0 °F /  -6.7 °C 16.2 °F /  -8.8 °C 30.40in /  1029.3hPa SE 1.0mph /  1.6km/h 4.0mph /  6.4km/h 85% 0.00in /  0mm
21:14 20.1 °F /  -6.6 °C 16.6 °F /  -8.6 °C 30.40in /  1029.3hPa SE 2.0mph /  3.2km/h 2.0mph /  3.2km/h 86% 0.00in /  0mm
21:19 20.1 °F /  -6.6 °C 16.6 °F /  -8.6 °C 30.40in /  1029.3hPa SE 1.0mph /  1.6km/h 2.0mph /  3.2km/h 86% 0.00in /  0mm
21:24 20.1 °F /  -6.6 °C 16.6 °F /  -8.6 °C 30.40in /  1029.3hPa SE 1.0mph /  1.6km/h 3.0mph /  4.8km/h 86% 0.00in /  0mm
21:29 20.1 °F /  -6.6 °C 16.6 °F /  -8.6 °C 30.40in /  1029.3hPa Calm   2.0mph /  3.2km/h 86% 0.00in /  0mm
21:44 20.2 °F /  -6.6 °C 16.7 °F /  -8.5 °C 30.39in /  1029hPa Calm     86% 0.00in /  0mm
21:49 20.2 °F /  -6.6 °C 16.7 °F /  -8.5 °C 30.40in /  1029.3hPa SE 1.0mph /  1.6km/h 3.0mph /  4.8km/h 86% 0.00in /  0mm
21:54 20.2 °F /  -6.6 °C 16.7 °F /  -8.5 °C 30.39in /  1029hPa Calm   3.0mph /  4.8km/h 86% 0.00in /  0mm
21:59 20.2 °F /  -6.6 °C 16.7 °F /  -8.5 °C 30.39in /  1029hPa Calm   3.0mph /  4.8km/h 86% 0.00in /  0mm
22:04 20.2 °F /  -6.6 °C 16.7 °F /  -8.5 °C 30.39in /  1029hPa Calm   2.0mph /  3.2km/h 86% 0.00in /  0mm
22:09 20.2 °F /  -6.6 °C 16.7 °F /  -8.5 °C 30.39in /  1029hPa Calm   3.0mph /  4.8km/h 86% 0.00in /  0mm
22:14 20.2 °F /  -6.6 °C 16.7 °F /  -8.5 °C 30.39in /  1029hPa SE 1.0mph /  1.6km/h 3.0mph /  4.8km/h 86% 0.00in /  0mm
22:19 20.1 °F /  -6.6 °C 16.6 °F /  -8.6 °C 30.39in /  1029hPa Calm   2.0mph /  3.2km/h 86% 0.00in /  0mm
22:24 20.1 °F /  -6.6 °C 16.6 °F /  -8.6 °C 30.38in /  1028.7hPa Calm   2.0mph /  3.2km/h 86% 0.00in /  0mm
22:29 20.1 °F /  -6.6 °C 16.6 °F /  -8.6 °C 30.38in /  1028.7hPa Calm   2.0mph /  3.2km/h 86% 0.00in /  0mm
22:34 20.0 °F /  -6.7 °C 16.5 °F /  -8.6 °C 30.38in /  1028.7hPa SE 1.0mph /  1.6km/h 2.0mph /  3.2km/h 86% 0.00in /  0mm
22:39 20.0 °F /  -6.7 °C 16.5 °F /  -8.6 °C 30.38in /  1028.7hPa Calm   2.0mph /  3.2km/h 86% 0.00in /  0mm
22:44 20.0 °F /  -6.7 °C 16.5 °F /  -8.6 °C 30.38in /  1028.7hPa Calm   3.0mph /  4.8km/h 86% 0.00in /  0mm
22:49 19.9 °F /  -6.7 °C 16.7 °F /  -8.5 °C 30.38in /  1028.7hPa SE 1.0mph /  1.6km/h 4.0mph /  6.4km/h 87% 0.00in /  0mm
22:59 19.7 °F /  -6.8 °C 16.5 °F /  -8.6 °C 30.38in /  1028.7hPa Calm   3.0mph /  4.8km/h 87% 0.00in /  0mm
23:04 19.5 °F /  -6.9 °C 16.3 °F /  -8.7 °C 30.37in /  1028.3hPa Calm   1.0mph /  1.6km/h 87% 0.00in /  0mm
23:09 19.3 °F /  -7.1 °C 16.1 °F /  -8.8 °C 30.37in /  1028.3hPa Calm     87% 0.00in /  0mm
23:14 19.0 °F /  -7.2 °C 15.8 °F /  -9 °C 30.37in /  1028.3hPa Calm     87% 0.00in /  0mm
23:19 18.8 °F /  -7.3 °C 15.3 °F /  -9.3 °C 30.37in /  1028.3hPa Calm     86% 0.00in /  0mm
23:24 18.7 °F /  -7.4 °C 15.5 °F /  -9.2 °C 30.37in /  1028.3hPa Calm     87% 0.00in /  0mm
23:29 18.8 °F /  -7.3 °C 15.6 °F /  -9.1 °C 30.36in /  1028hPa Calm     87% 0.00in /  0mm
23:34 19.0 °F /  -7.2 °C 15.8 °F /  -9 °C 30.36in /  1028hPa Calm     87% 0.00in /  0mm
23:39 19.0 °F /  -7.2 °C 15.8 °F /  -9 °C 30.36in /  1028hPa SE 2.0mph /  3.2km/h 2.0mph /  3.2km/h 87% 0.00in /  0mm
23:44 19.0 °F /  -7.2 °C 15.8 °F /  -9 °C 30.36in /  1028hPa SE 2.0mph /  3.2km/h 3.0mph /  4.8km/h 87% 0.00in /  0mm
23:49 19.1 °F /  -7.2 °C 15.9 °F /  -8.9 °C 30.36in /  1028hPa Calm   2.0mph /  3.2km/h 87% 0.00in /  0mm
23:54 19.2 °F /  -7.1 °C 16.0 °F /  -8.9 °C 30.36in /  1028hPa Calm   2.0mph /  3.2km/h 87% 0.00in /  0mm
23:59 19.3 °F /  -7.1 °C 16.1 °F /  -8.8 °C 30.36in /  1028hPa Calm     87% 0.00in /  0mm
Buffalo, New York, USA
Compliments of Weather Underground - 2.25 mb